sensor_id;sensor_type;location;lat;lon;timestamp;P1;durP1;ratioP1;P2;durP2;ratioP2
54430;SDS011;40342;52.998;5.862;2022-12-11T00:00:09;126.97;;;35.85;;
54430;SDS011;40342;52.998;5.862;2022-12-11T00:02:36;129.80;;;34.97;;
54430;SDS011;40342;52.998;5.862;2022-12-11T00:05:02;123.53;;;35.05;;
54430;SDS011;40342;52.998;5.862;2022-12-11T00:07:28;108.25;;;32.55;;
54430;SDS011;40342;52.998;5.862;2022-12-11T00:09:53;123.50;;;34.90;;
54430;SDS011;40342;52.998;5.862;2022-12-11T00:12:19;108.88;;;34.03;;
54430;SDS011;40342;52.998;5.862;2022-12-11T00:14:44;122.10;;;32.10;;
54430;SDS011;40342;52.998;5.862;2022-12-11T00:17:10;125.55;;;36.88;;
54430;SDS011;40342;52.998;5.862;2022-12-11T00:19:35;120.00;;;35.05;;
54430;SDS011;40342;52.998;5.862;2022-12-11T00:22:01;124.32;;;35.80;;
54430;SDS011;40342;52.998;5.862;2022-12-11T00:24:27;124.53;;;35.83;;
54430;SDS011;40342;52.998;5.862;2022-12-11T00:26:52;110.43;;;35.17;;
54430;SDS011;40342;52.998;5.862;2022-12-11T00:29:18;118.50;;;35.58;;
54430;SDS011;40342;52.998;5.862;2022-12-11T00:31:43;105.75;;;33.28;;
54430;SDS011;40342;52.998;5.862;2022-12-11T00:34:09;112.40;;;31.95;;
54430;SDS011;40342;52.998;5.862;2022-12-11T00:36:36;109.30;;;33.92;;
54430;SDS011;40342;52.998;5.862;2022-12-11T00:39:02;127.00;;;34.97;;
54430;SDS011;40342;52.998;5.862;2022-12-11T00:41:28;117.75;;;34.00;;
54430;SDS011;40342;52.998;5.862;2022-12-11T00:43:54;110.72;;;33.00;;
54430;SDS011;40342;52.998;5.862;2022-12-11T00:46:20;110.38;;;33.33;;
54430;SDS011;40342;52.998;5.862;2022-12-11T00:48:45;115.13;;;33.15;;
54430;SDS011;40342;52.998;5.862;2022-12-11T00:51:13;110.72;;;33.60;;
54430;SDS011;40342;52.998;5.862;2022-12-11T00:53:40;114.28;;;34.17;;
54430;SDS011;40342;52.998;5.862;2022-12-11T00:56:09;116.85;;;35.30;;
54430;SDS011;40342;52.998;5.862;2022-12-11T00:58:36;116.68;;;34.88;;
54430;SDS011;40342;52.998;5.862;2022-12-11T01:01:08;124.20;;;36.38;;
54430;SDS011;40342;52.998;5.862;2022-12-11T01:03:35;124.13;;;35.97;;
54430;SDS011;40342;52.998;5.862;2022-12-11T01:06:02;115.43;;;35.28;;
54430;SDS011;40342;52.998;5.862;2022-12-11T01:08:28;124.47;;;34.42;;
54430;SDS011;40342;52.998;5.862;2022-12-11T01:11:04;108.10;;;34.15;;
54430;SDS011;40342;52.998;5.862;2022-12-11T01:13:32;106.32;;;33.88;;
54430;SDS011;40342;52.998;5.862;2022-12-11T01:15:57;104.70;;;33.25;;
54430;SDS011;40342;52.998;5.862;2022-12-11T01:18:23;109.47;;;32.13;;
54430;SDS011;40342;52.998;5.862;2022-12-11T01:20:49;112.05;;;34.05;;
54430;SDS011;40342;52.998;5.862;2022-12-11T01:23:15;112.35;;;33.25;;
54430;SDS011;40342;52.998;5.862;2022-12-11T01:25:41;112.40;;;33.72;;
54430;SDS011;40342;52.998;5.862;2022-12-11T01:28:07;109.75;;;35.13;;
54430;SDS011;40342;52.998;5.862;2022-12-11T01:30:33;103.68;;;34.55;;
54430;SDS011;40342;52.998;5.862;2022-12-11T01:32:59;99.00;;;33.50;;
54430;SDS011;40342;52.998;5.862;2022-12-11T01:35:25;103.97;;;34.08;;
54430;SDS011;40342;52.998;5.862;2022-12-11T01:37:51;114.88;;;34.42;;
54430;SDS011;40342;52.998;5.862;2022-12-11T01:40:17;117.90;;;34.60;;
54430;SDS011;40342;52.998;5.862;2022-12-11T01:42:47;118.20;;;34.50;;
54430;SDS011;40342;52.998;5.862;2022-12-11T01:48:07;117.07;;;34.42;;
54430;SDS011;40342;52.998;5.862;2022-12-11T01:50:48;125.00;;;36.67;;
54430;SDS011;40342;52.998;5.862;2022-12-11T01:53:21;136.53;;;38.80;;
54430;SDS011;40342;52.998;5.862;2022-12-11T01:55:59;136.00;;;35.92;;
54430;SDS011;40342;52.998;5.862;2022-12-11T01:58:26;135.50;;;37.92;;
54430;SDS011;40342;52.998;5.862;2022-12-11T02:00:56;133.80;;;38.38;;
54430;SDS011;40342;52.998;5.862;2022-12-11T02:03:23;136.95;;;38.25;;
54430;SDS011;40342;52.998;5.862;2022-12-11T02:05:48;134.40;;;39.53;;
54430;SDS011;40342;52.998;5.862;2022-12-11T02:08:14;146.80;;;38.55;;
54430;SDS011;40342;52.998;5.862;2022-12-11T02:10:42;135.93;;;36.90;;
54430;SDS011;40342;52.998;5.862;2022-12-11T02:13:33;144.15;;;39.25;;
54430;SDS011;40342;52.998;5.862;2022-12-11T02:16:15;139.30;;;38.58;;
54430;SDS011;40342;52.998;5.862;2022-12-11T02:21:26;146.55;;;37.80;;
54430;SDS011;40342;52.998;5.862;2022-12-11T02:30:01;140.95;;;38.10;;
54430;SDS011;40342;52.998;5.862;2022-12-11T02:32:39;147.65;;;39.80;;
54430;SDS011;40342;52.998;5.862;2022-12-11T02:37:59;164.13;;;42.08;;
54430;SDS011;40342;52.998;5.862;2022-12-11T02:40:30;139.95;;;38.72;;
54430;SDS011;40342;52.998;5.862;2022-12-11T02:43:00;164.63;;;40.30;;
54430;SDS011;40342;52.998;5.862;2022-12-11T02:45:28;152.38;;;40.00;;
54430;SDS011;40342;52.998;5.862;2022-12-11T02:47:56;141.95;;;39.13;;
54430;SDS011;40342;52.998;5.862;2022-12-11T02:50:25;150.35;;;39.95;;
54430;SDS011;40342;52.998;5.862;2022-12-11T02:52:53;150.20;;;41.60;;
54430;SDS011;40342;52.998;5.862;2022-12-11T02:55:20;149.48;;;39.80;;
54430;SDS011;40342;52.998;5.862;2022-12-11T02:57:51;150.18;;;40.00;;
54430;SDS011;40342;52.998;5.862;2022-12-11T03:00:24;139.88;;;38.40;;
54430;SDS011;40342;52.998;5.862;2022-12-11T03:02:49;142.88;;;40.50;;
54430;SDS011;40342;52.998;5.862;2022-12-11T03:05:15;139.75;;;39.95;;
54430;SDS011;40342;52.998;5.862;2022-12-11T03:07:42;153.63;;;42.22;;
54430;SDS011;40342;52.998;5.862;2022-12-11T03:10:09;153.52;;;41.15;;
54430;SDS011;40342;52.998;5.862;2022-12-11T03:12:41;146.85;;;41.67;;
54430;SDS011;40342;52.998;5.862;2022-12-11T03:15:11;135.48;;;38.72;;
54430;SDS011;40342;52.998;5.862;2022-12-11T03:17:44;137.45;;;40.88;;
54430;SDS011;40342;52.998;5.862;2022-12-11T03:23:15;143.25;;;40.70;;
54430;SDS011;40342;52.998;5.862;2022-12-11T03:26:04;155.35;;;40.33;;
54430;SDS011;40342;52.998;5.862;2022-12-11T03:31:04;143.63;;;40.25;;
54430;SDS011;40342;52.998;5.862;2022-12-11T03:33:34;148.82;;;40.17;;
54430;SDS011;40342;52.998;5.862;2022-12-11T03:36:11;141.18;;;40.20;;
54430;SDS011;40342;52.998;5.862;2022-12-11T03:38:49;148.13;;;42.63;;
54430;SDS011;40342;52.998;5.862;2022-12-11T03:41:19;139.05;;;39.95;;
54430;SDS011;40342;52.998;5.862;2022-12-11T03:43:47;147.07;;;40.83;;
54430;SDS011;40342;52.998;5.862;2022-12-11T03:46:16;143.90;;;39.95;;
54430;SDS011;40342;52.998;5.862;2022-12-11T03:48:44;140.02;;;40.10;;
54430;SDS011;40342;52.998;5.862;2022-12-11T03:51:13;147.32;;;42.05;;
54430;SDS011;40342;52.998;5.862;2022-12-11T03:53:40;148.18;;;41.88;;
54430;SDS011;40342;52.998;5.862;2022-12-11T03:56:08;135.40;;;40.15;;
54430;SDS011;40342;52.998;5.862;2022-12-11T03:58:36;132.57;;;38.70;;
54430;SDS011;40342;52.998;5.862;2022-12-11T04:01:02;125.50;;;39.78;;
54430;SDS011;40342;52.998;5.862;2022-12-11T04:03:32;135.13;;;39.70;;
54430;SDS011;40342;52.998;5.862;2022-12-11T04:05:57;130.68;;;38.25;;
54430;SDS011;40342;52.998;5.862;2022-12-11T04:08:23;138.05;;;39.97;;
54430;SDS011;40342;52.998;5.862;2022-12-11T04:10:49;134.43;;;37.90;;
54430;SDS011;40342;52.998;5.862;2022-12-11T04:13:38;127.07;;;38.75;;
54430;SDS011;40342;52.998;5.862;2022-12-11T04:16:06;127.78;;;38.00;;
54430;SDS011;40342;52.998;5.862;2022-12-11T04:18:32;128.15;;;38.78;;
54430;SDS011;40342;52.998;5.862;2022-12-11T04:21:30;125.28;;;38.67;;
54430;SDS011;40342;52.998;5.862;2022-12-11T04:24:14;125.85;;;37.55;;
54430;SDS011;40342;52.998;5.862;2022-12-11T04:26:40;122.40;;;38.25;;
54430;SDS011;40342;52.998;5.862;2022-12-11T04:29:10;132.32;;;38.50;;
54430;SDS011;40342;52.998;5.862;2022-12-11T04:31:36;123.88;;;37.63;;
54430;SDS011;40342;52.998;5.862;2022-12-11T04:34:02;124.78;;;39.38;;
54430;SDS011;40342;52.998;5.862;2022-12-11T04:36:27;109.65;;;34.80;;
54430;SDS011;40342;52.998;5.862;2022-12-11T04:38:53;115.60;;;37.53;;
54430;SDS011;40342;52.998;5.862;2022-12-11T04:41:18;118.93;;;37.10;;
54430;SDS011;40342;52.998;5.862;2022-12-11T04:43:44;113.50;;;35.40;;
54430;SDS011;40342;52.998;5.862;2022-12-11T04:46:11;108.13;;;33.90;;
54430;SDS011;40342;52.998;5.862;2022-12-11T04:48:39;110.68;;;35.55;;
54430;SDS011;40342;52.998;5.862;2022-12-11T04:51:06;109.40;;;35.50;;
54430;SDS011;40342;52.998;5.862;2022-12-11T04:53:32;109.75;;;36.58;;
54430;SDS011;40342;52.998;5.862;2022-12-11T04:55:58;112.50;;;37.15;;
54430;SDS011;40342;52.998;5.862;2022-12-11T04:58:24;115.38;;;36.58;;
54430;SDS011;40342;52.998;5.862;2022-12-11T05:00:50;107.88;;;34.97;;
54430;SDS011;40342;52.998;5.862;2022-12-11T05:03:17;116.82;;;36.03;;
54430;SDS011;40342;52.998;5.862;2022-12-11T05:05:50;109.47;;;35.83;;
54430;SDS011;40342;52.998;5.862;2022-12-11T05:08:17;98.28;;;33.42;;
54430;SDS011;40342;52.998;5.862;2022-12-11T05:10:43;95.45;;;33.72;;
54430;SDS011;40342;52.998;5.862;2022-12-11T05:13:09;104.95;;;35.47;;
54430;SDS011;40342;52.998;5.862;2022-12-11T05:15:37;101.35;;;33.45;;
54430;SDS011;40342;52.998;5.862;2022-12-11T05:18:04;107.78;;;35.42;;
54430;SDS011;40342;52.998;5.862;2022-12-11T05:20:29;125.03;;;37.50;;
54430;SDS011;40342;52.998;5.862;2022-12-11T05:22:55;115.80;;;37.47;;
54430;SDS011;40342;52.998;5.862;2022-12-11T05:25:20;97.70;;;34.70;;
54430;SDS011;40342;52.998;5.862;2022-12-11T05:27:46;112.32;;;36.03;;
54430;SDS011;40342;52.998;5.862;2022-12-11T05:30:12;92.88;;;33.55;;
54430;SDS011;40342;52.998;5.862;2022-12-11T05:32:37;99.03;;;35.20;;
54430;SDS011;40342;52.998;5.862;2022-12-11T05:35:03;106.47;;;35.67;;
54430;SDS011;40342;52.998;5.862;2022-12-11T05:37:29;106.70;;;35.65;;
54430;SDS011;40342;52.998;5.862;2022-12-11T05:39:57;104.63;;;36.38;;
54430;SDS011;40342;52.998;5.862;2022-12-11T05:42:22;102.88;;;34.88;;
54430;SDS011;40342;52.998;5.862;2022-12-11T05:44:48;106.50;;;35.50;;
54430;SDS011;40342;52.998;5.862;2022-12-11T05:47:13;107.22;;;37.63;;
54430;SDS011;40342;52.998;5.862;2022-12-11T05:49:39;94.40;;;33.80;;
54430;SDS011;40342;52.998;5.862;2022-12-11T05:52:04;104.78;;;35.03;;
54430;SDS011;40342;52.998;5.862;2022-12-11T05:54:30;112.75;;;37.03;;
54430;SDS011;40342;52.998;5.862;2022-12-11T05:56:56;101.72;;;36.08;;
54430;SDS011;40342;52.998;5.862;2022-12-11T05:59:21;112.63;;;36.67;;
54430;SDS011;40342;52.998;5.862;2022-12-11T06:01:47;103.45;;;36.35;;
54430;SDS011;40342;52.998;5.862;2022-12-11T06:04:12;100.38;;;35.17;;
54430;SDS011;40342;52.998;5.862;2022-12-11T06:06:38;98.55;;;35.28;;
54430;SDS011;40342;52.998;5.862;2022-12-11T06:09:04;95.32;;;35.53;;
54430;SDS011;40342;52.998;5.862;2022-12-11T06:11:31;89.55;;;33.92;;
54430;SDS011;40342;52.998;5.862;2022-12-11T06:13:59;100.40;;;35.70;;
54430;SDS011;40342;52.998;5.862;2022-12-11T06:16:26;110.90;;;36.58;;
54430;SDS011;40342;52.998;5.862;2022-12-11T06:18:51;109.53;;;37.78;;
54430;SDS011;40342;52.998;5.862;2022-12-11T06:21:18;104.30;;;35.17;;
54430;SDS011;40342;52.998;5.862;2022-12-11T06:23:49;117.80;;;36.42;;
54430;SDS011;40342;52.998;5.862;2022-12-11T06:26:17;108.70;;;36.78;;
54430;SDS011;40342;52.998;5.862;2022-12-11T06:28:43;106.53;;;35.97;;
54430;SDS011;40342;52.998;5.862;2022-12-11T06:31:09;120.10;;;37.17;;
54430;SDS011;40342;52.998;5.862;2022-12-11T06:33:35;108.00;;;38.00;;
54430;SDS011;40342;52.998;5.862;2022-12-11T06:36:05;112.30;;;38.40;;
54430;SDS011;40342;52.998;5.862;2022-12-11T06:38:40;115.65;;;37.55;;
54430;SDS011;40342;52.998;5.862;2022-12-11T06:41:06;113.60;;;37.28;;
54430;SDS011;40342;52.998;5.862;2022-12-11T06:43:33;119.07;;;37.75;;
54430;SDS011;40342;52.998;5.862;2022-12-11T06:46:07;115.63;;;36.70;;
54430;SDS011;40342;52.998;5.862;2022-12-11T06:48:35;112.72;;;36.10;;
54430;SDS011;40342;52.998;5.862;2022-12-11T06:51:08;123.90;;;38.28;;
54430;SDS011;40342;52.998;5.862;2022-12-11T06:53:37;120.22;;;39.85;;
54430;SDS011;40342;52.998;5.862;2022-12-11T06:56:04;114.72;;;38.20;;
54430;SDS011;40342;52.998;5.862;2022-12-11T06:58:34;123.53;;;39.03;;
54430;SDS011;40342;52.998;5.862;2022-12-11T07:01:01;110.90;;;38.92;;
54430;SDS011;40342;52.998;5.862;2022-12-11T07:03:27;108.05;;;37.55;;
54430;SDS011;40342;52.998;5.862;2022-12-11T07:05:53;113.82;;;38.17;;
54430;SDS011;40342;52.998;5.862;2022-12-11T07:08:26;109.75;;;36.88;;
54430;SDS011;40342;52.998;5.862;2022-12-11T07:10:53;123.63;;;38.42;;
54430;SDS011;40342;52.998;5.862;2022-12-11T07:13:18;132.18;;;40.03;;
54430;SDS011;40342;52.998;5.862;2022-12-11T07:15:44;111.75;;;37.78;;
54430;SDS011;40342;52.998;5.862;2022-12-11T07:18:09;112.05;;;37.60;;
54430;SDS011;40342;52.998;5.862;2022-12-11T07:20:35;121.78;;;38.78;;
54430;SDS011;40342;52.998;5.862;2022-12-11T07:23:01;112.10;;;38.80;;
54430;SDS011;40342;52.998;5.862;2022-12-11T07:25:26;113.43;;;37.25;;
54430;SDS011;40342;52.998;5.862;2022-12-11T07:27:52;108.22;;;38.10;;
54430;SDS011;40342;52.998;5.862;2022-12-11T07:30:17;112.13;;;37.28;;
54430;SDS011;40342;52.998;5.862;2022-12-11T07:32:43;118.18;;;39.53;;
54430;SDS011;40342;52.998;5.862;2022-12-11T07:35:09;106.25;;;36.28;;
54430;SDS011;40342;52.998;5.862;2022-12-11T07:37:34;111.82;;;37.25;;
54430;SDS011;40342;52.998;5.862;2022-12-11T07:40:00;101.90;;;38.25;;
54430;SDS011;40342;52.998;5.862;2022-12-11T07:42:27;104.47;;;37.30;;
54430;SDS011;40342;52.998;5.862;2022-12-11T07:44:52;105.15;;;35.95;;
54430;SDS011;40342;52.998;5.862;2022-12-11T07:47:18;108.90;;;38.35;;
54430;SDS011;40342;52.998;5.862;2022-12-11T07:49:44;110.28;;;38.95;;
54430;SDS011;40342;52.998;5.862;2022-12-11T07:52:09;115.95;;;47.03;;
54430;SDS011;40342;52.998;5.862;2022-12-11T07:54:35;105.03;;;41.88;;
54430;SDS011;40342;52.998;5.862;2022-12-11T07:57:00;129.35;;;53.03;;
54430;SDS011;40342;52.998;5.862;2022-12-11T07:59:26;110.85;;;45.63;;
54430;SDS011;40342;52.998;5.862;2022-12-11T08:01:52;116.60;;;46.20;;
54430;SDS011;40342;52.998;5.862;2022-12-11T08:04:17;111.78;;;44.63;;
54430;SDS011;40342;52.998;5.862;2022-12-11T08:06:43;121.03;;;48.53;;
54430;SDS011;40342;52.998;5.862;2022-12-11T08:09:10;128.63;;;51.75;;
54430;SDS011;40342;52.998;5.862;2022-12-11T08:11:36;123.15;;;51.90;;
54430;SDS011;40342;52.998;5.862;2022-12-11T08:14:02;115.90;;;41.95;;
54430;SDS011;40342;52.998;5.862;2022-12-11T08:16:29;114.75;;;44.72;;
54430;SDS011;40342;52.998;5.862;2022-12-11T08:18:56;115.93;;;48.08;;
54430;SDS011;40342;52.998;5.862;2022-12-11T08:21:22;121.57;;;46.95;;
54430;SDS011;40342;52.998;5.862;2022-12-11T08:23:50;118.22;;;51.50;;
54430;SDS011;40342;52.998;5.862;2022-12-11T08:26:18;114.18;;;46.90;;
54430;SDS011;40342;52.998;5.862;2022-12-11T08:28:45;117.10;;;46.15;;
54430;SDS011;40342;52.998;5.862;2022-12-11T08:31:11;110.80;;;43.65;;
54430;SDS011;40342;52.998;5.862;2022-12-11T08:33:38;119.88;;;42.17;;
54430;SDS011;40342;52.998;5.862;2022-12-11T08:36:06;121.18;;;46.22;;
54430;SDS011;40342;52.998;5.862;2022-12-11T08:38:34;118.63;;;44.30;;
54430;SDS011;40342;52.998;5.862;2022-12-11T08:41:10;114.47;;;45.67;;
54430;SDS011;40342;52.998;5.862;2022-12-11T08:43:36;125.07;;;52.53;;
54430;SDS011;40342;52.998;5.862;2022-12-11T08:46:03;127.85;;;49.90;;
54430;SDS011;40342;52.998;5.862;2022-12-11T08:48:29;122.03;;;48.97;;
54430;SDS011;40342;52.998;5.862;2022-12-11T08:50:57;118.50;;;51.08;;
54430;SDS011;40342;52.998;5.862;2022-12-11T08:53:28;119.75;;;49.10;;
54430;SDS011;40342;52.998;5.862;2022-12-11T08:55:59;113.38;;;44.92;;
54430;SDS011;40342;52.998;5.862;2022-12-11T08:58:29;119.20;;;49.13;;
54430;SDS011;40342;52.998;5.862;2022-12-11T09:00:55;96.30;;;40.28;;
54430;SDS011;40342;52.998;5.862;2022-12-11T09:03:21;108.97;;;45.80;;
54430;SDS011;40342;52.998;5.862;2022-12-11T09:05:46;103.10;;;42.60;;
54430;SDS011;40342;52.998;5.862;2022-12-11T09:08:12;105.00;;;40.50;;
54430;SDS011;40342;52.998;5.862;2022-12-11T09:10:38;116.07;;;47.55;;
54430;SDS011;40342;52.998;5.862;2022-12-11T09:13:03;101.57;;;44.70;;
54430;SDS011;40342;52.998;5.862;2022-12-11T09:15:29;104.15;;;43.00;;
54430;SDS011;40342;52.998;5.862;2022-12-11T09:17:54;101.32;;;45.55;;
54430;SDS011;40342;52.998;5.862;2022-12-11T09:20:20;104.60;;;45.13;;
54430;SDS011;40342;52.998;5.862;2022-12-11T09:22:46;87.00;;;37.03;;
54430;SDS011;40342;52.998;5.862;2022-12-11T09:25:11;92.63;;;35.22;;
54430;SDS011;40342;52.998;5.862;2022-12-11T09:27:38;91.72;;;40.05;;
54430;SDS011;40342;52.998;5.862;2022-12-11T09:30:03;96.80;;;45.70;;
54430;SDS011;40342;52.998;5.862;2022-12-11T09:32:30;91.47;;;40.30;;
54430;SDS011;40342;52.998;5.862;2022-12-11T09:34:55;96.63;;;43.60;;
54430;SDS011;40342;52.998;5.862;2022-12-11T09:37:21;86.50;;;38.75;;
54430;SDS011;40342;52.998;5.862;2022-12-11T09:39:46;88.20;;;39.58;;
54430;SDS011;40342;52.998;5.862;2022-12-11T09:44:48;85.15;;;38.58;;
54430;SDS011;40342;52.998;5.862;2022-12-11T09:47:22;93.50;;;40.00;;
54430;SDS011;40342;52.998;5.862;2022-12-11T09:50:00;100.90;;;42.75;;
54430;SDS011;40342;52.998;5.862;2022-12-11T09:52:39;101.05;;;47.65;;
54430;SDS011;40342;52.998;5.862;2022-12-11T09:55:31;120.63;;;59.92;;
54430;SDS011;40342;52.998;5.862;2022-12-11T09:58:21;95.88;;;40.95;;
54430;SDS011;40342;52.998;5.862;2022-12-11T10:01:02;95.18;;;44.70;;
54430;SDS011;40342;52.998;5.862;2022-12-11T10:17:55;110.22;;;53.65;;
54430;SDS011;40342;52.998;5.862;2022-12-11T10:20:24;103.03;;;48.92;;
54430;SDS011;40342;52.998;5.862;2022-12-11T10:23:04;136.63;;;64.55;;
54430;SDS011;40342;52.998;5.862;2022-12-11T10:25:34;107.28;;;48.10;;
54430;SDS011;40342;52.998;5.862;2022-12-11T10:28:20;100.47;;;48.38;;
54430;SDS011;40342;52.998;5.862;2022-12-11T10:33:22;89.68;;;43.15;;
54430;SDS011;40342;52.998;5.862;2022-12-11T10:36:12;90.82;;;44.33;;
54430;SDS011;40342;52.998;5.862;2022-12-11T10:38:44;84.70;;;42.53;;
54430;SDS011;40342;52.998;5.862;2022-12-11T10:41:13;106.95;;;53.67;;
54430;SDS011;40342;52.998;5.862;2022-12-11T10:43:45;85.85;;;42.42;;
54430;SDS011;40342;52.998;5.862;2022-12-11T10:46:19;84.60;;;42.20;;
54430;SDS011;40342;52.998;5.862;2022-12-11T10:48:55;136.48;;;72.63;;
54430;SDS011;40342;52.998;5.862;2022-12-11T10:54:02;90.47;;;45.53;;
54430;SDS011;40342;52.998;5.862;2022-12-11T10:56:31;97.45;;;51.47;;
54430;SDS011;40342;52.998;5.862;2022-12-11T10:58:59;81.70;;;40.33;;
54430;SDS011;40342;52.998;5.862;2022-12-11T11:01:26;80.95;;;44.08;;
54430;SDS011;40342;52.998;5.862;2022-12-11T11:06:27;88.20;;;44.05;;
54430;SDS011;40342;52.998;5.862;2022-12-11T11:08:56;79.65;;;44.45;;
54430;SDS011;40342;52.998;5.862;2022-12-11T11:11:36;73.85;;;39.20;;
54430;SDS011;40342;52.998;5.862;2022-12-11T11:16:41;73.63;;;36.90;;
54430;SDS011;40342;52.998;5.862;2022-12-11T11:19:20;65.10;;;36.17;;
54430;SDS011;40342;52.998;5.862;2022-12-11T11:22:00;67.55;;;38.22;;
54430;SDS011;40342;52.998;5.862;2022-12-11T11:27:11;65.03;;;37.78;;
54430;SDS011;40342;52.998;5.862;2022-12-11T11:29:42;68.78;;;38.85;;
54430;SDS011;40342;52.998;5.862;2022-12-11T11:32:19;70.40;;;39.53;;
54430;SDS011;40342;52.998;5.862;2022-12-11T11:34:47;76.78;;;41.75;;
54430;SDS011;40342;52.998;5.862;2022-12-11T11:37:23;80.25;;;43.83;;
54430;SDS011;40342;52.998;5.862;2022-12-11T11:39:54;66.25;;;37.22;;
54430;SDS011;40342;52.998;5.862;2022-12-11T11:42:33;83.75;;;47.72;;
54430;SDS011;40342;52.998;5.862;2022-12-11T11:45:25;62.53;;;37.47;;
54430;SDS011;40342;52.998;5.862;2022-12-11T11:48:11;67.90;;;39.85;;
54430;SDS011;40342;52.998;5.862;2022-12-11T11:50:39;57.75;;;35.45;;
54430;SDS011;40342;52.998;5.862;2022-12-11T11:53:16;67.88;;;42.75;;
54430;SDS011;40342;52.998;5.862;2022-12-11T11:56:17;51.15;;;33.78;;
54430;SDS011;40342;52.998;5.862;2022-12-11T11:58:52;59.53;;;35.50;;
54430;SDS011;40342;52.998;5.862;2022-12-11T12:01:31;60.78;;;41.47;;
54430;SDS011;40342;52.998;5.862;2022-12-11T12:03:57;51.90;;;33.47;;
54430;SDS011;40342;52.998;5.862;2022-12-11T12:09:14;54.85;;;36.00;;
54430;SDS011;40342;52.998;5.862;2022-12-11T12:14:18;57.60;;;37.90;;
54430;SDS011;40342;52.998;5.862;2022-12-11T12:20:02;56.08;;;34.72;;
54430;SDS011;40342;52.998;5.862;2022-12-11T12:26:13;54.57;;;37.73;;
54430;SDS011;40342;52.998;5.862;2022-12-11T12:28:52;55.05;;;38.38;;
54430;SDS011;40342;52.998;5.862;2022-12-11T12:36:46;46.50;;;32.72;;
54430;SDS011;40342;52.998;5.862;2022-12-11T12:39:34;47.08;;;34.35;;
54430;SDS011;40342;52.998;5.862;2022-12-11T12:44:55;49.15;;;37.75;;
54430;SDS011;40342;52.998;5.862;2022-12-11T12:47:25;45.13;;;32.85;;
54430;SDS011;40342;52.998;5.862;2022-12-11T12:49:54;47.78;;;37.13;;
54430;SDS011;40342;52.998;5.862;2022-12-11T12:52:32;43.38;;;32.30;;
54430;SDS011;40342;52.998;5.862;2022-12-11T12:55:02;39.95;;;30.27;;
54430;SDS011;40342;52.998;5.862;2022-12-11T12:57:43;45.65;;;34.55;;
54430;SDS011;40342;52.998;5.862;2022-12-11T13:00:12;42.85;;;32.17;;
54430;SDS011;40342;52.998;5.862;2022-12-11T13:02:46;43.60;;;34.22;;
54430;SDS011;40342;52.998;5.862;2022-12-11T13:05:28;57.47;;;43.60;;
54430;SDS011;40342;52.998;5.862;2022-12-11T13:08:00;56.67;;;34.00;;
54430;SDS011;40342;52.998;5.862;2022-12-11T13:10:32;42.15;;;31.75;;
54430;SDS011;40342;52.998;5.862;2022-12-11T13:13:01;43.45;;;30.58;;
54430;SDS011;40342;52.998;5.862;2022-12-11T13:17:59;48.17;;;34.30;;
54430;SDS011;40342;52.998;5.862;2022-12-11T13:20:28;48.28;;;33.88;;
54430;SDS011;40342;52.998;5.862;2022-12-11T13:25:31;41.88;;;32.22;;
54430;SDS011;40342;52.998;5.862;2022-12-11T13:31:00;44.92;;;34.42;;
54430;SDS011;40342;52.998;5.862;2022-12-11T13:33:48;42.35;;;33.13;;
54430;SDS011;40342;52.998;5.862;2022-12-11T13:36:22;44.70;;;31.80;;
54430;SDS011;40342;52.998;5.862;2022-12-11T13:39:16;43.88;;;32.65;;
54430;SDS011;40342;52.998;5.862;2022-12-11T13:41:54;40.67;;;32.70;;
54430;SDS011;40342;52.998;5.862;2022-12-11T13:44:27;40.40;;;32.70;;
54430;SDS011;40342;52.998;5.862;2022-12-11T13:46:57;44.30;;;34.25;;
54430;SDS011;40342;52.998;5.862;2022-12-11T13:49:27;40.28;;;32.80;;
54430;SDS011;40342;52.998;5.862;2022-12-11T13:51:58;42.78;;;33.05;;
54430;SDS011;40342;52.998;5.862;2022-12-11T13:54:25;45.40;;;32.30;;
54430;SDS011;40342;52.998;5.862;2022-12-11T13:59:47;39.47;;;31.10;;
54430;SDS011;40342;52.998;5.862;2022-12-11T14:04:43;40.00;;;32.20;;
54430;SDS011;40342;52.998;5.862;2022-12-11T14:07:09;39.65;;;32.10;;
54430;SDS011;40342;52.998;5.862;2022-12-11T14:09:36;43.10;;;32.90;;
54430;SDS011;40342;52.998;5.862;2022-12-11T14:12:15;43.30;;;32.72;;
54430;SDS011;40342;52.998;5.862;2022-12-11T14:14:48;42.55;;;31.77;;
54430;SDS011;40342;52.998;5.862;2022-12-11T14:17:22;43.40;;;31.15;;
54430;SDS011;40342;52.998;5.862;2022-12-11T14:19:50;40.85;;;30.90;;
54430;SDS011;40342;52.998;5.862;2022-12-11T14:22:18;38.55;;;29.55;;
54430;SDS011;40342;52.998;5.862;2022-12-11T14:24:53;38.03;;;29.58;;
54430;SDS011;40342;52.998;5.862;2022-12-11T14:27:21;36.53;;;28.88;;
54430;SDS011;40342;52.998;5.862;2022-12-11T14:29:47;36.95;;;28.90;;
54430;SDS011;40342;52.998;5.862;2022-12-11T14:35:17;37.22;;;28.90;;
54430;SDS011;40342;52.998;5.862;2022-12-11T14:37:57;38.92;;;28.35;;
54430;SDS011;40342;52.998;5.862;2022-12-11T14:40:27;33.45;;;26.60;;
54430;SDS011;40342;52.998;5.862;2022-12-11T14:43:00;38.90;;;28.20;;
54430;SDS011;40342;52.998;5.862;2022-12-11T14:45:32;37.72;;;28.40;;
54430;SDS011;40342;52.998;5.862;2022-12-11T14:48:01;36.97;;;26.98;;
54430;SDS011;40342;52.998;5.862;2022-12-11T14:50:38;37.63;;;28.02;;
54430;SDS011;40342;52.998;5.862;2022-12-11T14:53:14;37.95;;;28.35;;
54430;SDS011;40342;52.998;5.862;2022-12-11T14:55:45;37.92;;;28.95;;
54430;SDS011;40342;52.998;5.862;2022-12-11T15:00:41;35.78;;;27.08;;
54430;SDS011;40342;52.998;5.862;2022-12-11T15:03:19;34.03;;;27.38;;
54430;SDS011;40342;52.998;5.862;2022-12-11T15:05:53;37.08;;;28.08;;
54430;SDS011;40342;52.998;5.862;2022-12-11T15:08:31;35.40;;;28.60;;
54430;SDS011;40342;52.998;5.862;2022-12-11T15:11:09;37.47;;;28.90;;
54430;SDS011;40342;52.998;5.862;2022-12-11T15:13:44;33.17;;;25.70;;
54430;SDS011;40342;52.998;5.862;2022-12-11T15:16:17;32.88;;;26.67;;
54430;SDS011;40342;52.998;5.862;2022-12-11T15:18:46;37.15;;;27.80;;
54430;SDS011;40342;52.998;5.862;2022-12-11T15:21:14;36.55;;;27.85;;
54430;SDS011;40342;52.998;5.862;2022-12-11T15:26:16;35.35;;;27.17;;
54430;SDS011;40342;52.998;5.862;2022-12-11T15:28:44;52.03;;;39.42;;
54430;SDS011;40342;52.998;5.862;2022-12-11T15:31:27;37.38;;;28.45;;
54430;SDS011;40342;52.998;5.862;2022-12-11T15:33:57;38.28;;;29.42;;
54430;SDS011;40342;52.998;5.862;2022-12-11T15:38:55;35.78;;;27.63;;
54430;SDS011;40342;52.998;5.862;2022-12-11T15:41:21;43.53;;;34.60;;
54430;SDS011;40342;52.998;5.862;2022-12-11T15:43:54;39.88;;;29.65;;
54430;SDS011;40342;52.998;5.862;2022-12-11T15:46:21;45.67;;;32.17;;
54430;SDS011;40342;52.998;5.862;2022-12-11T15:48:47;46.67;;;33.83;;
54430;SDS011;40342;52.998;5.862;2022-12-11T15:51:13;39.55;;;29.23;;
54430;SDS011;40342;52.998;5.862;2022-12-11T15:53:39;34.50;;;26.70;;
54430;SDS011;40342;52.998;5.862;2022-12-11T15:56:05;36.50;;;27.88;;
54430;SDS011;40342;52.998;5.862;2022-12-11T15:58:33;34.42;;;27.05;;
54430;SDS011;40342;52.998;5.862;2022-12-11T16:00:59;35.70;;;27.63;;